sensor_id;sensor_type;location;lat;lon;timestamp;P1;durP1;ratioP1;P2;durP2;ratioP2
77507;SDS011;66618;42.666;23.360;2023-04-03T00:01:02;13.80;;;7.93;;
77507;SDS011;66618;42.666;23.360;2023-04-03T00:03:29;15.38;;;8.15;;
77507;SDS011;66618;42.666;23.360;2023-04-03T00:05:54;15.85;;;7.88;;
77507;SDS011;66618;42.666;23.360;2023-04-03T00:08:20;12.25;;;7.22;;
77507;SDS011;66618;42.666;23.360;2023-04-03T00:10:45;14.48;;;7.20;;
77507;SDS011;66618;42.666;23.360;2023-04-03T00:13:11;13.43;;;6.80;;
77507;SDS011;66618;42.666;23.360;2023-04-03T00:15:37;14.30;;;6.45;;
77507;SDS011;66618;42.666;23.360;2023-04-03T00:18:03;11.07;;;6.13;;
77507;SDS011;66618;42.666;23.360;2023-04-03T00:20:29;9.77;;;6.22;;
77507;SDS011;66618;42.666;23.360;2023-04-03T00:22:54;11.63;;;6.10;;
77507;SDS011;66618;42.666;23.360;2023-04-03T00:25:20;10.50;;;5.68;;
77507;SDS011;66618;42.666;23.360;2023-04-03T00:27:46;11.35;;;5.90;;
77507;SDS011;66618;42.666;23.360;2023-04-03T00:30:13;10.90;;;5.82;;
77507;SDS011;66618;42.666;23.360;2023-04-03T00:32:40;8.77;;;5.57;;
77507;SDS011;66618;42.666;23.360;2023-04-03T00:35:05;11.30;;;5.47;;
77507;SDS011;66618;42.666;23.360;2023-04-03T00:37:31;8.45;;;5.43;;
77507;SDS011;66618;42.666;23.360;2023-04-03T00:39:57;11.82;;;4.85;;
77507;SDS011;66618;42.666;23.360;2023-04-03T00:42:22;9.45;;;5.00;;
77507;SDS011;66618;42.666;23.360;2023-04-03T00:47:14;7.22;;;4.88;;
77507;SDS011;66618;42.666;23.360;2023-04-03T00:49:42;9.90;;;5.05;;
77507;SDS011;66618;42.666;23.360;2023-04-03T00:52:09;8.13;;;4.78;;
77507;SDS011;66618;42.666;23.360;2023-04-03T00:54:37;8.07;;;4.78;;
77507;SDS011;66618;42.666;23.360;2023-04-03T00:57:03;9.32;;;4.70;;
77507;SDS011;66618;42.666;23.360;2023-04-03T00:59:31;8.20;;;5.10;;
77507;SDS011;66618;42.666;23.360;2023-04-03T01:01:58;9.30;;;4.20;;
77507;SDS011;66618;42.666;23.360;2023-04-03T01:04:34;11.98;;;4.60;;
77507;SDS011;66618;42.666;23.360;2023-04-03T01:07:04;6.80;;;4.93;;
77507;SDS011;66618;42.666;23.360;2023-04-03T01:09:34;10.70;;;6.47;;
77507;SDS011;66618;42.666;23.360;2023-04-03T01:15:12;9.55;;;6.28;;
77507;SDS011;66618;42.666;23.360;2023-04-03T01:17:44;10.02;;;6.53;;
77507;SDS011;66618;42.666;23.360;2023-04-03T01:25:25;9.55;;;6.00;;
77507;SDS011;66618;42.666;23.360;2023-04-03T01:27:51;9.38;;;6.70;;
77507;SDS011;66618;42.666;23.360;2023-04-03T01:30:17;9.48;;;6.35;;
77507;SDS011;66618;42.666;23.360;2023-04-03T01:32:43;12.00;;;7.20;;
77507;SDS011;66618;42.666;23.360;2023-04-03T01:35:09;12.15;;;5.80;;
77507;SDS011;66618;42.666;23.360;2023-04-03T01:37:35;12.90;;;6.85;;
77507;SDS011;66618;42.666;23.360;2023-04-03T01:40:00;11.48;;;7.30;;
77507;SDS011;66618;42.666;23.360;2023-04-03T01:42:26;10.60;;;6.32;;
77507;SDS011;66618;42.666;23.360;2023-04-03T01:44:51;11.85;;;6.10;;
77507;SDS011;66618;42.666;23.360;2023-04-03T01:47:17;11.13;;;6.38;;
77507;SDS011;66618;42.666;23.360;2023-04-03T01:49:42;10.38;;;5.90;;
77507;SDS011;66618;42.666;23.360;2023-04-03T01:52:07;9.25;;;5.90;;
77507;SDS011;66618;42.666;23.360;2023-04-03T01:54:33;12.43;;;6.20;;
77507;SDS011;66618;42.666;23.360;2023-04-03T01:56:58;9.10;;;5.53;;
77507;SDS011;66618;42.666;23.360;2023-04-03T01:59:24;11.82;;;6.10;;
77507;SDS011;66618;42.666;23.360;2023-04-03T02:01:49;9.18;;;5.40;;
77507;SDS011;66618;42.666;23.360;2023-04-03T02:04:15;10.07;;;5.60;;
77507;SDS011;66618;42.666;23.360;2023-04-03T02:06:40;9.68;;;5.78;;
77507;SDS011;66618;42.666;23.360;2023-04-03T02:09:05;15.45;;;7.78;;
77507;SDS011;66618;42.666;23.360;2023-04-03T02:11:31;14.02;;;8.50;;
77507;SDS011;66618;42.666;23.360;2023-04-03T02:13:57;16.25;;;8.90;;
77507;SDS011;66618;42.666;23.360;2023-04-03T02:16:22;18.45;;;9.30;;
77507;SDS011;66618;42.666;23.360;2023-04-03T02:18:48;15.07;;;8.38;;
77507;SDS011;66618;42.666;23.360;2023-04-03T02:21:13;17.35;;;8.75;;
77507;SDS011;66618;42.666;23.360;2023-04-03T02:23:38;14.77;;;8.20;;
77507;SDS011;66618;42.666;23.360;2023-04-03T02:26:08;13.73;;;7.55;;
77507;SDS011;66618;42.666;23.360;2023-04-03T02:28:35;12.45;;;8.00;;
77507;SDS011;66618;42.666;23.360;2023-04-03T02:31:01;14.32;;;8.27;;
77507;SDS011;66618;42.666;23.360;2023-04-03T02:33:27;13.43;;;8.02;;
77507;SDS011;66618;42.666;23.360;2023-04-03T02:35:53;14.50;;;8.10;;
77507;SDS011;66618;42.666;23.360;2023-04-03T02:38:20;12.77;;;7.93;;
77507;SDS011;66618;42.666;23.360;2023-04-03T02:40:46;14.35;;;7.55;;
77507;SDS011;66618;42.666;23.360;2023-04-03T02:43:11;13.50;;;7.20;;
77507;SDS011;66618;42.666;23.360;2023-04-03T02:45:37;12.32;;;7.18;;
77507;SDS011;66618;42.666;23.360;2023-04-03T02:48:02;12.88;;;7.05;;
77507;SDS011;66618;42.666;23.360;2023-04-03T02:50:27;13.77;;;7.45;;
77507;SDS011;66618;42.666;23.360;2023-04-03T02:52:53;15.70;;;6.75;;
77507;SDS011;66618;42.666;23.360;2023-04-03T02:55:18;9.80;;;6.38;;
77507;SDS011;66618;42.666;23.360;2023-04-03T02:57:43;10.98;;;6.22;;
77507;SDS011;66618;42.666;23.360;2023-04-03T03:00:09;11.85;;;6.47;;
77507;SDS011;66618;42.666;23.360;2023-04-03T03:02:35;10.43;;;6.70;;
77507;SDS011;66618;42.666;23.360;2023-04-03T03:05:00;13.35;;;5.75;;
77507;SDS011;66618;42.666;23.360;2023-04-03T03:07:26;11.98;;;6.45;;
77507;SDS011;66618;42.666;23.360;2023-04-03T03:09:51;9.38;;;5.93;;
77507;SDS011;66618;42.666;23.360;2023-04-03T03:12:17;9.75;;;6.72;;
77507;SDS011;66618;42.666;23.360;2023-04-03T03:14:46;10.55;;;6.15;;
77507;SDS011;66618;42.666;23.360;2023-04-03T03:17:12;10.75;;;6.20;;
77507;SDS011;66618;42.666;23.360;2023-04-03T03:19:37;11.85;;;5.88;;
77507;SDS011;66618;42.666;23.360;2023-04-03T03:22:02;11.05;;;6.72;;
77507;SDS011;66618;42.666;23.360;2023-04-03T03:24:28;9.88;;;6.10;;
77507;SDS011;66618;42.666;23.360;2023-04-03T03:26:53;13.95;;;6.35;;
77507;SDS011;66618;42.666;23.360;2023-04-03T03:29:19;11.07;;;6.28;;
77507;SDS011;66618;42.666;23.360;2023-04-03T03:31:44;11.50;;;6.30;;
77507;SDS011;66618;42.666;23.360;2023-04-03T03:34:10;11.10;;;6.80;;
77507;SDS011;66618;42.666;23.360;2023-04-03T03:36:35;14.82;;;6.80;;
77507;SDS011;66618;42.666;23.360;2023-04-03T03:39:01;10.88;;;5.57;;
77507;SDS011;66618;42.666;23.360;2023-04-03T03:41:27;9.02;;;5.38;;
77507;SDS011;66618;42.666;23.360;2023-04-03T03:43:52;7.57;;;4.88;;
77507;SDS011;66618;42.666;23.360;2023-04-03T03:46:17;13.98;;;6.18;;
77507;SDS011;66618;42.666;23.360;2023-04-03T03:48:43;12.23;;;5.30;;
77507;SDS011;66618;42.666;23.360;2023-04-03T03:51:08;7.50;;;5.03;;
77507;SDS011;66618;42.666;23.360;2023-04-03T03:53:33;9.35;;;4.25;;
77507;SDS011;66618;42.666;23.360;2023-04-03T03:55:59;9.75;;;5.55;;
77507;SDS011;66618;42.666;23.360;2023-04-03T03:58:25;8.57;;;4.93;;
77507;SDS011;66618;42.666;23.360;2023-04-03T04:00:50;9.68;;;4.97;;
77507;SDS011;66618;42.666;23.360;2023-04-03T04:03:15;11.45;;;5.47;;
77507;SDS011;66618;42.666;23.360;2023-04-03T04:05:41;8.45;;;5.47;;
77507;SDS011;66618;42.666;23.360;2023-04-03T04:08:06;8.45;;;5.60;;
77507;SDS011;66618;42.666;23.360;2023-04-03T04:10:32;10.75;;;5.78;;
77507;SDS011;66618;42.666;23.360;2023-04-03T04:12:58;10.70;;;5.47;;
77507;SDS011;66618;42.666;23.360;2023-04-03T04:15:24;10.30;;;4.93;;
77507;SDS011;66618;42.666;23.360;2023-04-03T04:17:50;5.90;;;4.45;;
77507;SDS011;66618;42.666;23.360;2023-04-03T04:20:16;8.32;;;4.68;;
77507;SDS011;66618;42.666;23.360;2023-04-03T04:22:41;6.07;;;4.53;;
77507;SDS011;66618;42.666;23.360;2023-04-03T04:25:07;10.20;;;4.85;;
77507;SDS011;66618;42.666;23.360;2023-04-03T04:27:33;6.82;;;5.00;;
77507;SDS011;66618;42.666;23.360;2023-04-03T04:29:58;7.82;;;4.75;;
77507;SDS011;66618;42.666;23.360;2023-04-03T04:32:23;7.55;;;4.55;;
77507;SDS011;66618;42.666;23.360;2023-04-03T04:34:49;8.05;;;4.57;;
77507;SDS011;66618;42.666;23.360;2023-04-03T04:37:14;6.35;;;4.90;;
77507;SDS011;66618;42.666;23.360;2023-04-03T04:39:40;11.15;;;5.63;;
77507;SDS011;66618;42.666;23.360;2023-04-03T04:42:06;8.52;;;4.85;;
77507;SDS011;66618;42.666;23.360;2023-04-03T04:44:32;9.82;;;5.75;;
77507;SDS011;66618;42.666;23.360;2023-04-03T04:46:57;11.93;;;7.30;;
77507;SDS011;66618;42.666;23.360;2023-04-03T04:49:23;14.82;;;7.50;;
77507;SDS011;66618;42.666;23.360;2023-04-03T04:51:48;18.35;;;7.22;;
77507;SDS011;66618;42.666;23.360;2023-04-03T04:54:13;21.63;;;7.13;;
77507;SDS011;66618;42.666;23.360;2023-04-03T04:56:39;12.38;;;6.60;;
77507;SDS011;66618;42.666;23.360;2023-04-03T04:59:06;12.38;;;7.18;;
77507;SDS011;66618;42.666;23.360;2023-04-03T05:01:31;12.38;;;6.80;;
77507;SDS011;66618;42.666;23.360;2023-04-03T05:03:57;14.55;;;6.25;;
77507;SDS011;66618;42.666;23.360;2023-04-03T05:06:22;10.23;;;6.20;;
77507;SDS011;66618;42.666;23.360;2023-04-03T05:08:48;13.18;;;7.20;;
77507;SDS011;66618;42.666;23.360;2023-04-03T05:11:13;12.27;;;6.22;;
77507;SDS011;66618;42.666;23.360;2023-04-03T05:13:38;11.35;;;6.65;;
77507;SDS011;66618;42.666;23.360;2023-04-03T05:16:04;18.77;;;7.70;;
77507;SDS011;66618;42.666;23.360;2023-04-03T05:18:30;12.38;;;7.25;;
77507;SDS011;66618;42.666;23.360;2023-04-03T05:20:55;15.68;;;7.97;;
77507;SDS011;66618;42.666;23.360;2023-04-03T05:23:21;15.50;;;6.43;;
77507;SDS011;66618;42.666;23.360;2023-04-03T05:25:46;9.82;;;6.20;;
77507;SDS011;66618;42.666;23.360;2023-04-03T05:28:13;12.07;;;6.75;;
77507;SDS011;66618;42.666;23.360;2023-04-03T05:30:39;12.93;;;6.30;;
77507;SDS011;66618;42.666;23.360;2023-04-03T05:33:05;12.93;;;6.50;;
77507;SDS011;66618;42.666;23.360;2023-04-03T05:35:31;11.35;;;6.35;;
77507;SDS011;66618;42.666;23.360;2023-04-03T05:37:56;11.73;;;6.03;;
77507;SDS011;66618;42.666;23.360;2023-04-03T05:40:22;11.60;;;6.20;;
77507;SDS011;66618;42.666;23.360;2023-04-03T05:42:47;14.10;;;6.55;;
77507;SDS011;66618;42.666;23.360;2023-04-03T05:45:12;16.58;;;7.07;;
77507;SDS011;66618;42.666;23.360;2023-04-03T05:47:38;12.57;;;7.80;;
77507;SDS011;66618;42.666;23.360;2023-04-03T05:50:03;15.85;;;7.90;;
77507;SDS011;66618;42.666;23.360;2023-04-03T05:52:30;14.05;;;7.30;;
77507;SDS011;66618;42.666;23.360;2023-04-03T05:54:58;12.63;;;7.43;;
77507;SDS011;66618;42.666;23.360;2023-04-03T05:57:24;10.77;;;6.90;;
77507;SDS011;66618;42.666;23.360;2023-04-03T05:59:49;14.05;;;8.00;;
77507;SDS011;66618;42.666;23.360;2023-04-03T06:02:16;13.60;;;7.90;;
77507;SDS011;66618;42.666;23.360;2023-04-03T06:04:43;14.18;;;8.10;;
77507;SDS011;66618;42.666;23.360;2023-04-03T06:07:12;16.98;;;8.30;;
77507;SDS011;66618;42.666;23.360;2023-04-03T06:09:39;17.58;;;8.27;;
77507;SDS011;66618;42.666;23.360;2023-04-03T06:12:04;16.63;;;8.95;;
77507;SDS011;66618;42.666;23.360;2023-04-03T06:14:30;14.50;;;8.85;;
77507;SDS011;66618;42.666;23.360;2023-04-03T06:16:55;23.67;;;9.00;;
77507;SDS011;66618;42.666;23.360;2023-04-03T06:19:21;23.50;;;11.98;;
77507;SDS011;66618;42.666;23.360;2023-04-03T06:21:47;24.85;;;14.00;;
77507;SDS011;66618;42.666;23.360;2023-04-03T06:24:14;32.92;;;15.77;;
77507;SDS011;66618;42.666;23.360;2023-04-03T06:26:40;27.92;;;14.88;;
77507;SDS011;66618;42.666;23.360;2023-04-03T06:29:06;24.60;;;14.95;;
77507;SDS011;66618;42.666;23.360;2023-04-03T06:31:32;26.73;;;14.38;;
77507;SDS011;66618;42.666;23.360;2023-04-03T06:33:57;25.85;;;14.85;;
77507;SDS011;66618;42.666;23.360;2023-04-03T06:36:23;30.40;;;14.48;;
77507;SDS011;66618;42.666;23.360;2023-04-03T06:38:49;29.83;;;15.68;;
77507;SDS011;66618;42.666;23.360;2023-04-03T06:41:14;31.67;;;18.17;;
77507;SDS011;66618;42.666;23.360;2023-04-03T06:43:42;37.63;;;21.02;;
77507;SDS011;66618;42.666;23.360;2023-04-03T06:46:18;38.58;;;23.75;;
77507;SDS011;66618;42.666;23.360;2023-04-03T06:48:44;47.67;;;27.13;;
77507;SDS011;66618;42.666;23.360;2023-04-03T06:51:15;48.97;;;21.20;;
77507;SDS011;66618;42.666;23.360;2023-04-03T06:53:43;38.15;;;21.85;;
77507;SDS011;66618;42.666;23.360;2023-04-03T06:56:09;38.47;;;21.67;;
77507;SDS011;66618;42.666;23.360;2023-04-03T06:58:35;35.80;;;21.13;;
77507;SDS011;66618;42.666;23.360;2023-04-03T07:01:01;33.63;;;21.25;;
77507;SDS011;66618;42.666;23.360;2023-04-03T07:03:26;37.22;;;21.73;;
77507;SDS011;66618;42.666;23.360;2023-04-03T07:05:51;38.15;;;21.15;;
77507;SDS011;66618;42.666;23.360;2023-04-03T07:08:17;33.45;;;19.98;;
77507;SDS011;66618;42.666;23.360;2023-04-03T07:10:42;36.65;;;21.92;;
77507;SDS011;66618;42.666;23.360;2023-04-03T07:13:07;36.40;;;20.67;;
77507;SDS011;66618;42.666;23.360;2023-04-03T07:15:33;40.35;;;20.08;;
77507;SDS011;66618;42.666;23.360;2023-04-03T07:17:58;35.78;;;19.15;;
77507;SDS011;66618;42.666;23.360;2023-04-03T07:20:24;29.02;;;16.10;;
77507;SDS011;66618;42.666;23.360;2023-04-03T07:22:49;22.02;;;12.73;;
77507;SDS011;66618;42.666;23.360;2023-04-03T07:25:15;21.60;;;12.18;;
77507;SDS011;66618;42.666;23.360;2023-04-03T07:27:41;21.10;;;11.95;;
77507;SDS011;66618;42.666;23.360;2023-04-03T07:30:07;22.25;;;11.38;;
77507;SDS011;66618;42.666;23.360;2023-04-03T07:32:34;15.32;;;9.45;;
77507;SDS011;66618;42.666;23.360;2023-04-03T07:35:00;19.13;;;9.98;;
77507;SDS011;66618;42.666;23.360;2023-04-03T07:37:25;16.65;;;10.15;;
77507;SDS011;66618;42.666;23.360;2023-04-03T07:39:51;16.50;;;10.23;;
77507;SDS011;66618;42.666;23.360;2023-04-03T07:42:17;29.17;;;15.23;;
77507;SDS011;66618;42.666;23.360;2023-04-03T07:44:42;30.30;;;17.65;;
77507;SDS011;66618;42.666;23.360;2023-04-03T07:47:08;27.65;;;15.98;;
77507;SDS011;66618;42.666;23.360;2023-04-03T07:49:34;29.27;;;17.38;;
77507;SDS011;66618;42.666;23.360;2023-04-03T07:52:02;28.63;;;16.55;;
77507;SDS011;66618;42.666;23.360;2023-04-03T07:54:29;35.08;;;23.15;;
77507;SDS011;66618;42.666;23.360;2023-04-03T07:56:54;37.05;;;23.42;;
77507;SDS011;66618;42.666;23.360;2023-04-03T07:59:19;47.28;;;28.38;;
77507;SDS011;66618;42.666;23.360;2023-04-03T08:01:45;36.08;;;24.95;;
77507;SDS011;66618;42.666;23.360;2023-04-03T08:04:10;30.98;;;19.45;;
77507;SDS011;66618;42.666;23.360;2023-04-03T08:06:36;37.03;;;24.98;;
77507;SDS011;66618;42.666;23.360;2023-04-03T08:09:02;40.70;;;23.23;;
77507;SDS011;66618;42.666;23.360;2023-04-03T08:11:29;30.25;;;17.23;;
77507;SDS011;66618;42.666;23.360;2023-04-03T08:13:55;25.55;;;15.15;;
77507;SDS011;66618;42.666;23.360;2023-04-03T08:16:22;30.77;;;17.95;;
77507;SDS011;66618;42.666;23.360;2023-04-03T08:18:50;31.58;;;16.58;;
77507;SDS011;66618;42.666;23.360;2023-04-03T08:21:15;28.60;;;15.13;;
77507;SDS011;66618;42.666;23.360;2023-04-03T08:23:41;31.65;;;17.00;;
77507;SDS011;66618;42.666;23.360;2023-04-03T08:26:13;27.35;;;18.02;;
77507;SDS011;66618;42.666;23.360;2023-04-03T08:28:40;29.33;;;16.73;;
77507;SDS011;66618;42.666;23.360;2023-04-03T08:31:07;28.83;;;16.48;;
77507;SDS011;66618;42.666;23.360;2023-04-03T08:33:36;26.17;;;16.38;;
77507;SDS011;66618;42.666;23.360;2023-04-03T08:36:03;23.05;;;15.25;;
77507;SDS011;66618;42.666;23.360;2023-04-03T08:38:29;23.48;;;15.23;;
77507;SDS011;66618;42.666;23.360;2023-04-03T08:41:02;24.48;;;16.33;;
77507;SDS011;66618;42.666;23.360;2023-04-03T08:44:17;27.13;;;15.30;;
77507;SDS011;66618;42.666;23.360;2023-04-03T08:47:10;26.40;;;15.52;;
77507;SDS011;66618;42.666;23.360;2023-04-03T08:49:30;23.25;;;14.15;;
77507;SDS011;66618;42.666;23.360;2023-04-03T08:51:58;20.67;;;13.27;;
77507;SDS011;66618;42.666;23.360;2023-04-03T08:54:37;23.92;;;15.23;;
77507;SDS011;66618;42.666;23.360;2023-04-03T08:57:33;26.50;;;14.05;;
77507;SDS011;66618;42.666;23.360;2023-04-03T09:00:00;22.92;;;13.15;;
77507;SDS011;66618;42.666;23.360;2023-04-03T09:04:59;25.85;;;13.00;;
77507;SDS011;66618;42.666;23.360;2023-04-03T09:07:33;18.83;;;12.93;;
77507;SDS011;66618;42.666;23.360;2023-04-03T09:10:03;24.67;;;13.13;;
77507;SDS011;66618;42.666;23.360;2023-04-03T09:12:32;17.88;;;12.13;;
77507;SDS011;66618;42.666;23.360;2023-04-03T09:23:13;16.05;;;11.25;;
77507;SDS011;66618;42.666;23.360;2023-04-03T09:26:19;19.52;;;12.27;;
77507;SDS011;66618;42.666;23.360;2023-04-03T09:29:01;24.75;;;13.25;;
77507;SDS011;66618;42.666;23.360;2023-04-03T09:31:35;19.13;;;13.02;;
77507;SDS011;66618;42.666;23.360;2023-04-03T09:34:03;18.70;;;11.00;;
77507;SDS011;66618;42.666;23.360;2023-04-03T09:36:44;20.90;;;11.80;;
77507;SDS011;66618;42.666;23.360;2023-04-03T09:39:21;23.40;;;13.02;;
77507;SDS011;66618;42.666;23.360;2023-04-03T09:44:25;18.23;;;12.13;;
77507;SDS011;66618;42.666;23.360;2023-04-03T09:46:52;18.42;;;11.60;;
77507;SDS011;66618;42.666;23.360;2023-04-03T09:49:18;22.98;;;11.40;;
77507;SDS011;66618;42.666;23.360;2023-04-03T09:51:44;12.73;;;8.07;;
77507;SDS011;66618;42.666;23.360;2023-04-03T09:57:10;19.52;;;11.60;;
77507;SDS011;66618;42.666;23.360;2023-04-03T09:59:47;17.77;;;11.80;;
77507;SDS011;66618;42.666;23.360;2023-04-03T10:02:28;19.27;;;10.48;;
77507;SDS011;66618;42.666;23.360;2023-04-03T10:04:58;17.55;;;10.02;;
77507;SDS011;66618;42.666;23.360;2023-04-03T10:09:56;14.45;;;8.95;;
77507;SDS011;66618;42.666;23.360;2023-04-03T10:12:23;14.57;;;8.70;;
77507;SDS011;66618;42.666;23.360;2023-04-03T10:14:55;16.92;;;8.57;;
77507;SDS011;66618;42.666;23.360;2023-04-03T10:28:28;8.85;;;6.47;;
77507;SDS011;66618;42.666;23.360;2023-04-03T10:36:36;6.22;;;4.68;;
77507;SDS011;66618;42.666;23.360;2023-04-03T10:41:43;7.60;;;4.28;;
77507;SDS011;66618;42.666;23.360;2023-04-03T10:57:39;4.45;;;3.15;;
77507;SDS011;66618;42.666;23.360;2023-04-03T11:00:06;5.32;;;3.60;;
77507;SDS011;66618;42.666;23.360;2023-04-03T11:02:45;7.28;;;3.95;;
77507;SDS011;66618;42.666;23.360;2023-04-03T11:05:29;4.05;;;3.08;;
77507;SDS011;66618;42.666;23.360;2023-04-03T11:08:01;5.25;;;3.95;;
77507;SDS011;66618;42.666;23.360;2023-04-03T11:13:08;3.50;;;2.80;;
77507;SDS011;66618;42.666;23.360;2023-04-03T11:15:41;4.18;;;2.40;;
77507;SDS011;66618;42.666;23.360;2023-04-03T11:18:14;4.65;;;2.63;;
77507;SDS011;66618;42.666;23.360;2023-04-03T11:20:44;2.72;;;2.17;;
77507;SDS011;66618;42.666;23.360;2023-04-03T11:23:21;4.78;;;2.70;;
77507;SDS011;66618;42.666;23.360;2023-04-03T11:25:51;4.30;;;2.67;;
77507;SDS011;66618;42.666;23.360;2023-04-03T11:28:18;2.85;;;2.55;;
77507;SDS011;66618;42.666;23.360;2023-04-03T11:39:00;4.25;;;3.15;;
77507;SDS011;66618;42.666;23.360;2023-04-03T11:41:28;4.90;;;2.72;;
77507;SDS011;66618;42.666;23.360;2023-04-03T11:44:03;5.80;;;3.03;;
77507;SDS011;66618;42.666;23.360;2023-04-03T11:49:59;3.55;;;2.95;;
77507;SDS011;66618;42.666;23.360;2023-04-03T12:05:54;3.97;;;3.00;;
77507;SDS011;66618;42.666;23.360;2023-04-03T12:08:45;7.90;;;3.10;;
77507;SDS011;66618;42.666;23.360;2023-04-03T12:13:41;4.53;;;3.35;;
77507;SDS011;66618;42.666;23.360;2023-04-03T12:16:28;2.28;;;2.08;;
77507;SDS011;66618;42.666;23.360;2023-04-03T12:29:28;4.75;;;4.22;;
77507;SDS011;66618;42.666;23.360;2023-04-03T12:34:40;4.82;;;3.22;;
77507;SDS011;66618;42.666;23.360;2023-04-03T12:45:30;6.25;;;3.45;;
77507;SDS011;66618;42.666;23.360;2023-04-03T12:48:06;6.57;;;4.85;;
77507;SDS011;66618;42.666;23.360;2023-04-03T12:50:46;6.35;;;5.03;;
77507;SDS011;66618;42.666;23.360;2023-04-03T12:53:13;6.10;;;4.10;;
77507;SDS011;66618;42.666;23.360;2023-04-03T12:55:40;7.28;;;6.35;;
77507;SDS011;66618;42.666;23.360;2023-04-03T12:58:13;6.97;;;5.05;;
77507;SDS011;66618;42.666;23.360;2023-04-03T13:00:44;9.85;;;6.22;;
77507;SDS011;66618;42.666;23.360;2023-04-03T13:03:20;8.05;;;6.63;;
77507;SDS011;66618;42.666;23.360;2023-04-03T13:05:48;10.63;;;6.68;;
77507;SDS011;66618;42.666;23.360;2023-04-03T13:08:13;8.75;;;6.40;;
77507;SDS011;66618;42.666;23.360;2023-04-03T13:10:49;10.18;;;7.45;;
77507;SDS011;66618;42.666;23.360;2023-04-03T13:13:17;9.18;;;6.03;;
77507;SDS011;66618;42.666;23.360;2023-04-03T13:15:46;12.35;;;8.30;;
77507;SDS011;66618;42.666;23.360;2023-04-03T13:18:23;10.40;;;6.90;;
77507;SDS011;66618;42.666;23.360;2023-04-03T13:20:53;10.02;;;7.20;;
77507;SDS011;66618;42.666;23.360;2023-04-03T13:23:21;7.95;;;6.55;;
77507;SDS011;66618;42.666;23.360;2023-04-03T13:25:47;11.70;;;7.90;;
77507;SDS011;66618;42.666;23.360;2023-04-03T13:28:15;13.20;;;8.45;;
77507;SDS011;66618;42.666;23.360;2023-04-03T13:33:58;10.02;;;7.47;;
77507;SDS011;66618;42.666;23.360;2023-04-03T13:39:33;11.47;;;8.87;;
77507;SDS011;66618;42.666;23.360;2023-04-03T13:42:01;13.43;;;9.00;;
77507;SDS011;66618;42.666;23.360;2023-04-03T13:44:29;15.98;;;8.00;;
77507;SDS011;66618;42.666;23.360;2023-04-03T13:49:37;12.60;;;7.72;;
77507;SDS011;66618;42.666;23.360;2023-04-03T13:54:47;13.80;;;7.70;;
77507;SDS011;66618;42.666;23.360;2023-04-03T13:57:14;12.00;;;7.20;;
77507;SDS011;66618;42.666;23.360;2023-04-03T13:59:41;30.90;;;12.90;;
77507;SDS011;66618;42.666;23.360;2023-04-03T14:07:08;12.48;;;9.27;;
77507;SDS011;66618;42.666;23.360;2023-04-03T14:09:34;10.13;;;8.45;;
77507;SDS011;66618;42.666;23.360;2023-04-03T14:12:02;10.48;;;7.57;;
77507;SDS011;66618;42.666;23.360;2023-04-03T14:14:33;9.45;;;5.70;;
77507;SDS011;66618;42.666;23.360;2023-04-03T14:17:00;10.80;;;7.85;;
77507;SDS011;66618;42.666;23.360;2023-04-03T14:19:31;10.20;;;6.93;;
77507;SDS011;66618;42.666;23.360;2023-04-03T14:21:59;12.82;;;9.00;;
77507;SDS011;66618;42.666;23.360;2023-04-03T14:24:30;12.52;;;8.25;;
77507;SDS011;66618;42.666;23.360;2023-04-03T14:26:57;11.10;;;7.88;;
77507;SDS011;66618;42.666;23.360;2023-04-03T14:29:23;16.75;;;10.23;;
77507;SDS011;66618;42.666;23.360;2023-04-03T14:31:49;49.05;;;23.50;;
77507;SDS011;66618;42.666;23.360;2023-04-03T14:34:15;34.67;;;15.70;;
77507;SDS011;66618;42.666;23.360;2023-04-03T14:36:42;31.98;;;15.35;;
77507;SDS011;66618;42.666;23.360;2023-04-03T14:39:10;34.10;;;14.85;;
77507;SDS011;66618;42.666;23.360;2023-04-03T14:41:42;16.90;;;11.05;;
77507;SDS011;66618;42.666;23.360;2023-04-03T14:44:08;8.30;;;6.90;;
77507;SDS011;66618;42.666;23.360;2023-04-03T14:46:37;6.65;;;5.05;;
77507;SDS011;66618;42.666;23.360;2023-04-03T14:51:59;7.22;;;4.80;;
77507;SDS011;66618;42.666;23.360;2023-04-03T14:54:25;6.93;;;5.50;;
77507;SDS011;66618;42.666;23.360;2023-04-03T14:56:53;6.32;;;5.32;;
77507;SDS011;66618;42.666;23.360;2023-04-03T14:59:19;5.32;;;4.07;;
77507;SDS011;66618;42.666;23.360;2023-04-03T15:01:46;5.82;;;4.40;;
77507;SDS011;66618;42.666;23.360;2023-04-03T15:04:12;4.65;;;4.03;;
77507;SDS011;66618;42.666;23.360;2023-04-03T15:06:39;4.95;;;4.30;;
77507;SDS011;66618;42.666;23.360;2023-04-03T15:09:17;5.95;;;5.20;;
77507;SDS011;66618;42.666;23.360;2023-04-03T15:11:45;4.68;;;4.20;;
77507;SDS011;66618;42.666;23.360;2023-04-03T15:14:11;5.88;;;4.63;;
77507;SDS011;66618;42.666;23.360;2023-04-03T15:16:36;5.93;;;4.97;;
77507;SDS011;66618;42.666;23.360;2023-04-03T15:19:01;3.90;;;3.25;;
77507;SDS011;66618;42.666;23.360;2023-04-03T15:21:27;5.57;;;4.95;;
77507;SDS011;66618;42.666;23.360;2023-04-03T15:23:53;4.80;;;3.83;;
77507;SDS011;66618;42.666;23.360;2023-04-03T15:26:18;5.10;;;3.78;;
77507;SDS011;66618;42.666;23.360;2023-04-03T15:28:43;4.68;;;4.03;;
77507;SDS011;66618;42.666;23.360;2023-04-03T15:31:10;5.93;;;4.53;;
77507;SDS011;66618;42.666;23.360;2023-04-03T15:33:35;5.13;;;4.45;;
77507;SDS011;66618;42.666;23.360;2023-04-03T15:36:01;3.78;;;3.28;;
77507;SDS011;66618;42.666;23.360;2023-04-03T15:38:27;6.13;;;5.15;;
77507;SDS011;66618;42.666;23.360;2023-04-03T15:40:53;6.50;;;4.50;;
77507;SDS011;66618;42.666;23.360;2023-04-03T15:43:19;4.65;;;3.25;;
77507;SDS011;66618;42.666;23.360;2023-04-03T15:45:45;8.73;;;5.90;;
77507;SDS011;66618;42.666;23.360;2023-04-03T15:48:10;9.18;;;5.30;;
77507;SDS011;66618;42.666;23.360;2023-04-03T15:50:36;4.45;;;3.83;;
77507;SDS011;66618;42.666;23.360;2023-04-03T15:53:05;5.03;;;3.80;;
77507;SDS011;66618;42.666;23.360;2023-04-03T15:55:31;4.80;;;3.97;;
77507;SDS011;66618;42.666;23.360;2023-04-03T15:57:58;5.95;;;4.38;;
77507;SDS011;66618;42.666;23.360;2023-04-03T16:00:24;7.18;;;5.15;;
77507;SDS011;66618;42.666;23.360;2023-04-03T16:02:51;6.45;;;4.95;;
77507;SDS011;66618;42.666;23.360;2023-04-03T16:05:18;5.03;;;4.38;;
77507;SDS011;66618;42.666;23.360;2023-04-03T16:07:44;7.25;;;6.15;;
77507;SDS011;66618;42.666;23.360;2023-04-03T16:10:11;5.03;;;3.92;;
77507;SDS011;66618;42.666;23.360;2023-04-03T16:12:36;7.75;;;6.68;;
77507;SDS011;66618;42.666;23.360;2023-04-03T16:15:02;6.78;;;5.05;;
77507;SDS011;66618;42.666;23.360;2023-04-03T16:17:28;8.77;;;6.93;;
77507;SDS011;66618;42.666;23.360;2023-04-03T16:19:55;6.32;;;4.82;;
77507;SDS011;66618;42.666;23.360;2023-04-03T16:22:21;7.63;;;5.60;;
77507;SDS011;66618;42.666;23.360;2023-04-03T16:24:47;6.88;;;5.50;;
77507;SDS011;66618;42.666;23.360;2023-04-03T16:27:12;7.95;;;5.82;;
77507;SDS011;66618;42.666;23.360;2023-04-03T16:29:37;8.75;;;6.40;;
77507;SDS011;66618;42.666;23.360;2023-04-03T16:32:03;5.28;;;4.63;;
77507;SDS011;66618;42.666;23.360;2023-04-03T16:34:28;9.18;;;6.50;;
77507;SDS011;66618;42.666;23.360;2023-04-03T16:36:55;9.63;;;6.15;;
77507;SDS011;66618;42.666;23.360;2023-04-03T16:39:21;29.67;;;16.38;;